createdAt,value
2023-02-19T00:01:06.430Z,101362.53
2023-02-19T00:03:32.900Z,101359.09
2023-02-19T00:06:02.074Z,101357.41
2023-02-19T00:08:31.259Z,101354.88
2023-02-19T00:11:05.734Z,101354.88
2023-02-19T00:13:36.008Z,101357.41
2023-02-19T00:16:25.216Z,101356.38
2023-02-19T00:18:53.440Z,101357.06
2023-02-19T00:21:20.600Z,101351.03
2023-02-19T00:23:54.383Z,101352.22
2023-02-19T00:26:21.817Z,101340.75
2023-02-19T00:28:49.949Z,101337.22
2023-02-19T00:31:33.032Z,101338.88
2023-02-19T00:34:02.193Z,101337.69
2023-02-19T00:36:30.477Z,101348.78
2023-02-19T00:38:57.150Z,101343.53
2023-02-19T00:41:24.746Z,101336.44
2023-02-19T00:44:02.947Z,101330.38
2023-02-19T00:46:32.841Z,101335.81
2023-02-19T00:48:59.616Z,101314.72
2023-02-19T00:51:29.177Z,101331.97
2023-02-19T00:53:55.621Z,101323.28
2023-02-19T00:56:22.584Z,101319.75
2023-02-19T00:58:49.806Z,101339.50
2023-02-19T01:01:16.854Z,101325.50
2023-02-19T01:03:43.631Z,101321.97
2023-02-19T01:06:11.867Z,101334.06
2023-02-19T01:08:38.422Z,101328.84
2023-02-19T01:11:06.753Z,101323.75
2023-02-19T01:13:33.853Z,101318.06
2023-02-19T01:16:21.872Z,101323.94
2023-02-19T01:18:48.850Z,101310.16
2023-02-19T01:21:18.317Z,101312.56
2023-02-19T01:23:44.873Z,101309.94
2023-02-19T01:26:14.385Z,101321.97
2023-02-19T01:28:40.985Z,101319.34
2023-02-19T01:31:12.144Z,101320.38
2023-02-19T01:33:39.035Z,101319.25
2023-02-19T01:36:06.763Z,101309.03
2023-02-19T01:38:33.378Z,101310.56
2023-02-19T01:41:03.270Z,101319.25
2023-02-19T01:43:32.795Z,101320.84
2023-02-19T01:45:59.580Z,101326.78
2023-02-19T01:48:33.092Z,101325.13
2023-02-19T01:51:09.731Z,101321.66
2023-02-19T01:53:42.277Z,101321.47
2023-02-19T01:56:09.869Z,101320.00
2023-02-19T01:58:37.963Z,101321.66
2023-02-19T02:01:07.197Z,101325.03
2023-02-19T02:03:35.448Z,101329.41
2023-02-19T02:06:07.317Z,101331.91
2023-02-19T02:08:52.932Z,101322.50
2023-02-19T02:11:20.590Z,101325.94
2023-02-19T02:13:48.391Z,101314.69
2023-02-19T02:16:23.332Z,101328.53
2023-02-19T02:19:05.942Z,101334.53
2023-02-19T02:21:56.025Z,101331.06
2023-02-19T02:24:25.483Z,101323.31
2023-02-19T02:27:11.583Z,101332.00
2023-02-19T02:30:02.785Z,101332.72
2023-02-19T02:32:53.667Z,101323.31
2023-02-19T02:35:35.071Z,101320.63
2023-02-19T02:38:07.481Z,101320.72
2023-02-19T02:40:34.785Z,101325.19
2023-02-19T02:43:01.249Z,101311.22
2023-02-19T02:45:36.533Z,101326.06
2023-02-19T02:48:12.343Z,101316.44
2023-02-19T02:50:46.267Z,101316.66
2023-02-19T02:53:43.727Z,101332.09
2023-02-19T02:56:13.620Z,101334.63
2023-02-19T02:58:40.755Z,101330.44
2023-02-19T03:01:39.883Z,101330.34
2023-02-19T03:04:12.390Z,101337.31
2023-02-19T03:06:41.944Z,101341.59
2023-02-19T03:09:13.301Z,101346.94
2023-02-19T03:12:02.346Z,101348.59
2023-02-19T03:14:58.704Z,101349.63
2023-02-19T03:17:56.267Z,101368.63
2023-02-19T03:20:24.805Z,101362.59
2023-02-19T03:22:52.837Z,101366.16
2023-02-19T03:25:42.859Z,101363.53
2023-02-19T03:28:11.435Z,101366.88
2023-02-19T03:30:43.636Z,101375.72
2023-02-19T03:33:15.677Z,101376.59
2023-02-19T03:35:47.486Z,101374.69
2023-02-19T03:38:44.237Z,101361.94
2023-02-19T03:41:19.431Z,101362.88
2023-02-19T03:43:53.697Z,101369.78
2023-02-19T03:46:28.417Z,101370.81
2023-02-19T03:49:32.769Z,101376.75
2023-02-19T03:52:08.129Z,101385.44
2023-02-19T03:54:34.501Z,101381.97
2023-02-19T03:57:09.037Z,101377.78
2023-02-19T03:59:47.101Z,101376.13
2023-02-19T04:02:36.288Z,101392.63
2023-02-19T04:05:08.150Z,101393.44
2023-02-19T04:07:40.048Z,101401.28
2023-02-19T04:10:09.104Z,101400.66
2023-02-19T04:12:41.583Z,101402.63
2023-02-19T04:15:13.432Z,101422.84
2023-02-19T04:17:46.714Z,101414.25
2023-02-19T04:20:15.516Z,101412.50
2023-02-19T04:22:42.176Z,101416.97
2023-02-19T04:25:09.209Z,101421.34
2023-02-19T04:27:39.764Z,101426.78
2023-02-19T04:30:08.659Z,101427.78
2023-02-19T04:32:35.148Z,101436.56
2023-02-19T04:35:01.615Z,101433.38
2023-02-19T04:37:28.069Z,101442.06
2023-02-19T04:39:54.499Z,101446.63
2023-02-19T04:42:20.921Z,101444.94
2023-02-19T04:44:47.345Z,101449.44
2023-02-19T04:47:13.811Z,101453.88
2023-02-19T04:49:40.253Z,101460.97
2023-02-19T04:52:06.730Z,101460.97
2023-02-19T04:54:33.147Z,101454.16
2023-02-19T04:56:59.572Z,101467.31
2023-02-19T04:59:26.054Z,101458.56
2023-02-19T05:01:52.515Z,101457.91
2023-02-19T05:04:19.112Z,101456.31
2023-02-19T05:06:45.522Z,101463.84
2023-02-19T05:09:12.027Z,101466.59
2023-02-19T05:11:38.480Z,101478.69
2023-02-19T05:14:05.008Z,101482.22
2023-02-19T05:16:31.507Z,101472.06
2023-02-19T05:18:57.971Z,101487.53
2023-02-19T05:21:24.817Z,101488.47
2023-02-19T05:23:51.388Z,101489.56
2023-02-19T05:26:22.517Z,101487.97
2023-02-19T05:28:52.566Z,101505.19
2023-02-19T05:31:19.941Z,101501.94
2023-02-19T05:33:50.933Z,101514.16
2023-02-19T05:36:19.640Z,101511.63
2023-02-19T05:38:46.391Z,101514.31
2023-02-19T05:41:18.310Z,101521.31
2023-02-19T05:43:46.064Z,101517.97
2023-02-19T05:46:15.154Z,101514.59
2023-02-19T05:48:42.000Z,101528.47
2023-02-19T05:51:14.106Z,101522.41
2023-02-19T05:53:41.328Z,101533.59
2023-02-19T05:56:26.085Z,101523.44
2023-02-19T05:58:54.506Z,101534.91
2023-02-19T06:01:22.926Z,101533.22
2023-02-19T06:03:49.420Z,101523.72
2023-02-19T06:06:18.264Z,101539.44
2023-02-19T06:08:45.580Z,101533.28
2023-02-19T06:11:12.368Z,101537.66
2023-02-19T06:13:39.184Z,101543.81
2023-02-19T06:16:07.677Z,101539.63
2023-02-19T06:18:34.534Z,101546.69
2023-02-19T06:21:02.500Z,101554.50
2023-02-19T06:23:29.692Z,101545.94
2023-02-19T06:26:05.498Z,101553.00
2023-02-19T06:28:31.929Z,101550.41
2023-02-19T06:30:58.905Z,101557.38
2023-02-19T06:33:26.831Z,101556.56
2023-02-19T06:35:53.369Z,101552.34
2023-02-19T06:38:21.466Z,101566.22
2023-02-19T06:40:47.935Z,101555.81
2023-02-19T06:43:14.366Z,101570.59
2023-02-19T06:45:40.820Z,101566.38
2023-02-19T06:48:07.252Z,101584.56
2023-02-19T06:50:33.701Z,101580.34
2023-02-19T06:53:00.172Z,101582.09
2023-02-19T06:55:26.630Z,101584.06
2023-02-19T06:57:53.069Z,101590.09
2023-02-19T07:00:19.620Z,101588.44
2023-02-19T07:02:46.066Z,101601.38
2023-02-19T07:05:12.606Z,101610.22
2023-02-19T07:07:39.048Z,101613.56
2023-02-19T07:10:05.901Z,101617.16
2023-02-19T07:12:32.359Z,101625.91
2023-02-19T07:14:58.793Z,101638.94
2023-02-19T07:17:25.263Z,101627.59
2023-02-19T07:19:51.685Z,101631.22
2023-02-19T07:22:18.119Z,101637.28
2023-02-19T07:24:46.867Z,101631.97
2023-02-19T07:27:14.198Z,101644.09
2023-02-19T07:29:47.375Z,101644.16
2023-02-19T07:32:13.806Z,101643.41
2023-02-19T07:34:40.298Z,101653.56
2023-02-19T07:37:06.747Z,101654.50
2023-02-19T07:39:33.178Z,101668.47
2023-02-19T07:41:59.646Z,101663.25
2023-02-19T07:44:26.078Z,101675.34
2023-02-19T07:46:52.528Z,101672.66
2023-02-19T07:49:19.106Z,101677.03
2023-02-19T07:51:45.585Z,101683.91
2023-02-19T07:54:12.499Z,101687.63
2023-02-19T07:56:38.973Z,101683.91
2023-02-19T07:59:05.447Z,101685.78
2023-02-19T08:01:50.577Z,101698.72
2023-02-19T08:04:17.077Z,101708.03
2023-02-19T08:06:43.551Z,101707.97
2023-02-19T08:09:10.324Z,101700.91
2023-02-19T08:11:55.250Z,101710.41
2023-02-19T08:14:26.211Z,101707.78
2023-02-19T08:16:53.594Z,101717.22
2023-02-19T08:19:20.789Z,101718.03
2023-02-19T08:21:47.270Z,101717.13
2023-02-19T08:24:13.712Z,101722.84
2023-02-19T08:26:40.149Z,101739.97
2023-02-19T08:29:06.722Z,101732.09
2023-02-19T08:31:34.518Z,101729.41
2023-02-19T08:34:01.079Z,101742.06
2023-02-19T08:36:27.681Z,101738.94
2023-02-19T08:38:54.267Z,101747.97
2023-02-19T08:41:20.750Z,101734.56
2023-02-19T08:43:47.263Z,101739.75
2023-02-19T08:46:14.036Z,101739.78
2023-02-19T08:48:40.961Z,101739.16
2023-02-19T08:51:12.191Z,101743.25
2023-02-19T08:53:40.055Z,101743.56
2023-02-19T08:56:12.874Z,101743.38
2023-02-19T08:58:39.682Z,101745.56
2023-02-19T09:01:11.535Z,101750.09
2023-02-19T09:03:38.292Z,101744.97
2023-02-19T09:06:05.200Z,101755.41
2023-02-19T09:08:31.820Z,101748.03
2023-02-19T09:11:03.504Z,101753.38
2023-02-19T09:13:30.396Z,101760.47
2023-02-19T09:15:57.298Z,101753.66
2023-02-19T09:18:25.138Z,101764.09
2023-02-19T09:20:51.589Z,101759.31
2023-02-19T09:23:18.038Z,101767.69
2023-02-19T09:25:44.540Z,101776.38
2023-02-19T09:28:11.025Z,101787.75
2023-02-19T09:30:37.524Z,101776.63
2023-02-19T09:33:06.065Z,101790.28
2023-02-19T09:35:32.505Z,101787.00
2023-02-19T09:38:03.136Z,101789.06
2023-02-19T09:40:30.143Z,101794.03
2023-02-19T09:42:56.786Z,101795.97
2023-02-19T09:45:25.250Z,101800.16
2023-02-19T09:47:57.721Z,101800.81
2023-02-19T09:50:43.827Z,101804.34
2023-02-19T09:53:19.660Z,101801.00
2023-02-19T09:55:46.166Z,101808.81
2023-02-19T09:58:29.905Z,101803.94
2023-02-19T10:01:00.025Z,101810.00
2023-02-19T10:03:35.994Z,101813.56
2023-02-19T10:06:10.187Z,101812.03
2023-02-19T10:08:40.134Z,101806.25
2023-02-19T10:11:07.546Z,101822.97
2023-02-19T10:13:55.823Z,101825.59
2023-02-19T10:16:28.148Z,101838.50
2023-02-19T10:18:54.683Z,101847.25
2023-02-19T10:21:24.603Z,101850.75
2023-02-19T10:23:55.491Z,101877.50
2023-02-19T10:26:23.025Z,101880.03
2023-02-19T10:28:49.535Z,101871.47
2023-02-19T10:31:20.946Z,101866.94
2023-02-19T10:33:53.118Z,101874.50
2023-02-19T10:36:32.573Z,101892.59
2023-02-19T10:39:01.874Z,101888.38
2023-02-19T10:41:29.552Z,101885.44
2023-02-19T10:44:09.834Z,101896.28
2023-02-19T10:46:46.998Z,101906.72
2023-02-19T10:49:48.966Z,101902.66
2023-02-19T10:52:21.129Z,101890.28
2023-02-19T10:54:53.245Z,101905.09
2023-02-19T10:57:19.638Z,101915.94
2023-02-19T10:59:51.936Z,101909.47
2023-02-19T11:02:20.462Z,101913.69
2023-02-19T11:05:11.973Z,101914.09
2023-02-19T11:07:44.596Z,101923.50
2023-02-19T11:10:23.788Z,101926.66
2023-02-19T11:12:52.425Z,101930.19
2023-02-19T11:15:51.231Z,101929.69
2023-02-19T11:18:36.115Z,101920.09
2023-02-19T11:21:05.113Z,101929.53
2023-02-19T11:23:38.393Z,101921.25
2023-02-19T11:26:15.946Z,101922.09
2023-02-19T11:28:43.201Z,101903.63
2023-02-19T11:31:19.744Z,101916.91
2023-02-19T11:34:02.376Z,101917.50
2023-02-19T11:36:33.272Z,101912.34
2023-02-19T11:39:17.944Z,101910.59
2023-02-19T11:42:12.544Z,101911.72
2023-02-19T11:44:55.249Z,101903.09
2023-02-19T11:47:48.596Z,101902.94
2023-02-19T11:50:22.633Z,101901.72
2023-02-19T11:53:16.522Z,101901.16
2023-02-19T11:56:12.159Z,101892.41
2023-02-19T11:58:50.606Z,101892.03
2023-02-19T12:01:44.745Z,101889.22
2023-02-19T12:04:20.143Z,101897.03
2023-02-19T12:06:52.665Z,101895.16
2023-02-19T12:09:37.040Z,101892.91
2023-02-19T12:12:22.421Z,101886.56
2023-02-19T12:15:20.692Z,101887.59
2023-02-19T12:18:08.988Z,101891.66
2023-02-19T12:20:49.850Z,101885.69
2023-02-19T12:23:19.354Z,101895.03
2023-02-19T12:26:00.648Z,101901.56
2023-02-19T12:28:39.498Z,101902.50
2023-02-19T12:31:44.214Z,101899.78
2023-02-19T12:34:10.574Z,101906.50
2023-02-19T12:37:14.456Z,101907.63
2023-02-19T12:39:40.820Z,101919.31
2023-02-19T12:42:35.138Z,101908.66
2023-02-19T12:45:21.558Z,101905.03
2023-02-19T12:48:06.276Z,101907.25
2023-02-19T12:50:35.231Z,101914.00
2023-02-19T12:53:08.085Z,101911.47
2023-02-19T12:55:43.221Z,101912.00
2023-02-19T12:58:32.475Z,101912.59
2023-02-19T13:00:59.808Z,101920.50
2023-02-19T13:03:37.806Z,101919.03
2023-02-19T13:06:31.451Z,101921.06
2023-02-19T13:09:07.626Z,101921.16
2023-02-19T13:11:44.116Z,101914.00
2023-02-19T13:14:24.009Z,101911.09
2023-02-19T13:17:00.357Z,101922.75
2023-02-19T13:19:26.873Z,101906.88
2023-02-19T13:22:26.064Z,101930.72
2023-02-19T13:24:54.505Z,101920.03
2023-02-19T13:27:43.502Z,101921.84
2023-02-19T13:30:13.707Z,101924.34
2023-02-19T13:33:24.689Z,101932.03
2023-02-19T13:36:06.087Z,101931.72
2023-02-19T13:38:38.202Z,101929.13
2023-02-19T13:41:05.040Z,101941.53
2023-02-19T13:43:38.858Z,101951.59
2023-02-19T13:46:09.306Z,101944.03
2023-02-19T13:48:41.138Z,101946.16
2023-02-19T13:51:21.550Z,101948.78
2023-02-19T13:53:48.163Z,101958.50
2023-02-19T13:56:30.045Z,101959.09
2023-02-19T13:59:21.234Z,101953.59
2023-02-19T14:01:53.661Z,101957.63
2023-02-19T14:04:20.089Z,101967.09
2023-02-19T14:07:04.686Z,101977.19
2023-02-19T14:09:37.199Z,101978.03
2023-02-19T14:12:15.021Z,101975.44
2023-02-19T14:14:55.627Z,101974.50
2023-02-19T14:17:38.663Z,101988.31
2023-02-19T14:20:17.018Z,101984.88
2023-02-19T14:22:46.915Z,101996.13
2023-02-19T14:25:31.983Z,101997.81
2023-02-19T14:28:01.626Z,101996.22
2023-02-19T14:30:29.609Z,102005.31
2023-02-19T14:33:09.845Z,102002.28
2023-02-19T14:35:45.955Z,102011.03
2023-02-19T14:38:24.760Z,102016.50
2023-02-19T14:40:53.182Z,102018.88
2023-02-19T14:43:22.354Z,102015.47
2023-02-19T14:46:03.006Z,102023.16
2023-02-19T14:48:41.691Z,102017.69
2023-02-19T14:51:16.074Z,102014.41
2023-02-19T14:53:45.077Z,102013.31
2023-02-19T14:56:25.168Z,102014.91
2023-02-19T14:59:11.813Z,102028.13
2023-02-19T15:01:38.928Z,102037.16
2023-02-19T15:04:06.578Z,102030.81
2023-02-19T15:06:35.874Z,102017.28
2023-02-19T15:09:07.188Z,102019.13
2023-02-19T15:11:35.204Z,102018.50
2023-02-19T15:14:07.709Z,102012.38
2023-02-19T15:16:36.221Z,102010.75
2023-02-19T15:19:07.852Z,102011.00
2023-02-19T15:21:38.968Z,101995.44
2023-02-19T15:24:06.910Z,101988.63
2023-02-19T15:26:36.599Z,101976.41
2023-02-19T15:29:12.441Z,101972.97
2023-02-19T15:31:45.761Z,101972.78
2023-02-19T15:34:21.076Z,101962.44
2023-02-19T15:36:50.554Z,101965.03
2023-02-19T15:39:24.205Z,101951.16
2023-02-19T15:41:59.109Z,101939.44
2023-02-19T15:44:39.972Z,101936.69
2023-02-19T15:47:33.333Z,101933.66
2023-02-19T15:50:08.855Z,101937.75
2023-02-19T15:52:35.242Z,101940.47
2023-02-19T15:55:16.573Z,101935.59
2023-02-19T15:57:48.094Z,101943.47
2023-02-19T16:00:26.129Z,101952.22
2023-02-19T16:02:52.752Z,101939.19
2023-02-19T16:05:29.197Z,101944.34
2023-02-19T16:08:11.033Z,101954.09
2023-02-19T16:10:38.394Z,101968.81
2023-02-19T16:13:08.144Z,101967.19
2023-02-19T16:15:35.727Z,101975.44
2023-02-19T16:18:02.409Z,101992.69
2023-02-19T16:20:32.731Z,101990.09
2023-02-19T16:23:02.786Z,102000.53
2023-02-19T16:25:44.168Z,101995.53
2023-02-19T16:28:24.000Z,102008.88
2023-02-19T16:30:59.246Z,102006.28
2023-02-19T16:33:48.202Z,102009.28
2023-02-19T16:36:33.175Z,102015.50
2023-02-19T16:39:03.052Z,102018.41
2023-02-19T16:41:29.718Z,102027.09
2023-02-19T16:43:56.175Z,102028.84
2023-02-19T16:46:22.739Z,102034.22
2023-02-19T16:48:50.323Z,102046.47
2023-02-19T16:51:35.038Z,102040.66
2023-02-19T16:54:01.482Z,102047.78
2023-02-19T16:56:27.904Z,102048.75
2023-02-19T16:58:54.354Z,102056.66
2023-02-19T17:01:20.889Z,102052.44
2023-02-19T17:03:47.846Z,102060.19
2023-02-19T17:06:15.834Z,102056.22
2023-02-19T17:08:44.213Z,102081.63
2023-02-19T17:11:13.792Z,102082.88
2023-02-19T17:13:41.658Z,102078.53
2023-02-19T17:16:16.882Z,102089.00
2023-02-19T17:18:43.475Z,102084.88
2023-02-19T17:21:30.544Z,102098.06
2023-02-19T17:23:57.337Z,102104.59
2023-02-19T17:26:29.571Z,102105.38
2023-02-19T17:28:57.576Z,102114.78
2023-02-19T17:31:24.244Z,102118.41
2023-02-19T17:33:51.734Z,102109.03
2023-02-19T17:36:21.301Z,102102.28
2023-02-19T17:38:47.898Z,102108.25
2023-02-19T17:41:14.397Z,102118.69
2023-02-19T17:43:40.901Z,102126.56
2023-02-19T17:46:13.808Z,102118.81
2023-02-19T17:48:40.297Z,102108.53
2023-02-19T17:51:06.901Z,102123.53
2023-02-19T17:53:33.343Z,102132.19
2023-02-19T17:55:59.822Z,102130.66
2023-02-19T17:58:26.338Z,102134.94
2023-02-19T18:00:52.932Z,102129.28
2023-02-19T18:03:19.575Z,102136.06
2023-02-19T18:05:46.000Z,102142.19
2023-02-19T18:08:12.965Z,102148.28
2023-02-19T18:10:39.485Z,102137.31
2023-02-19T18:13:06.932Z,102146.19
2023-02-19T18:15:33.559Z,102148.91
2023-02-19T18:17:59.993Z,102154.03
2023-02-19T18:20:28.352Z,102148.97
2023-02-19T18:22:56.142Z,102149.03
2023-02-19T18:25:22.941Z,102163.88
2023-02-19T18:27:49.854Z,102170.84
2023-02-19T18:30:19.002Z,102168.31
2023-02-19T18:32:48.619Z,102172.66
2023-02-19T18:35:17.042Z,102156.91
2023-02-19T18:37:43.473Z,102162.31
2023-02-19T18:40:10.697Z,102161.53
2023-02-19T18:42:37.216Z,102164.19
2023-02-19T18:45:04.231Z,102155.78
2023-02-19T18:47:30.693Z,102156.69
2023-02-19T18:49:58.690Z,102150.75
2023-02-19T18:52:26.851Z,102159.69
2023-02-19T18:54:55.566Z,102161.38
2023-02-19T18:57:23.614Z,102159.94
2023-02-19T18:59:50.584Z,102176.47
2023-02-19T19:02:17.626Z,102173.91
2023-02-19T19:04:50.032Z,102176.66
2023-02-19T19:07:17.080Z,102174.16
2023-02-19T19:09:43.623Z,102171.56
2023-02-19T19:12:10.142Z,102176.91
2023-02-19T19:14:37.313Z,102174.44
2023-02-19T19:17:04.193Z,102166.84
2023-02-19T19:19:30.627Z,102176.56
2023-02-19T19:21:57.384Z,102179.34
2023-02-19T19:24:24.993Z,102185.66
2023-02-19T19:26:52.423Z,102184.88
2023-02-19T19:29:22.051Z,102191.88
2023-02-19T19:31:49.454Z,102196.56
2023-02-19T19:34:16.721Z,102210.38
2023-02-19T19:36:43.665Z,102204.47
2023-02-19T19:39:10.191Z,102213.34
2023-02-19T19:41:36.664Z,102203.81
2023-02-19T19:44:05.339Z,102194.38
2023-02-19T19:46:32.660Z,102197.22
2023-02-19T19:48:59.329Z,102198.00
2023-02-19T19:51:35.493Z,102202.47
2023-02-19T19:54:04.137Z,102190.63
2023-02-19T19:56:31.486Z,102194.06
2023-02-19T19:58:57.920Z,102202.00
2023-02-19T20:01:24.558Z,102199.50
2023-02-19T20:03:51.264Z,102197.81
2023-02-19T20:06:29.238Z,102195.22
2023-02-19T20:08:55.855Z,102209.06
2023-02-19T20:11:22.776Z,102211.84
2023-02-19T20:13:49.584Z,102211.06
2023-02-19T20:16:16.146Z,102224.03
2023-02-19T20:18:42.671Z,102216.28
2023-02-19T20:21:10.615Z,102220.75
2023-02-19T20:23:40.323Z,102220.72
2023-02-19T20:26:06.964Z,102216.50
2023-02-19T20:28:33.509Z,102219.06
2023-02-19T20:31:02.432Z,102216.50
2023-02-19T20:33:28.954Z,102212.22
2023-02-19T20:35:56.933Z,102220.16
2023-02-19T20:38:23.370Z,102209.19
2023-02-19T20:40:49.834Z,102220.50
2023-02-19T20:43:16.281Z,102218.00
2023-02-19T20:45:45.738Z,102230.13
2023-02-19T20:48:15.219Z,102221.63
2023-02-19T20:50:41.729Z,102221.00
2023-02-19T20:53:08.671Z,102234.03
2023-02-19T20:55:35.143Z,102235.72
2023-02-19T20:58:02.135Z,102245.31
2023-02-19T21:00:28.591Z,102259.25
2023-02-19T21:02:55.040Z,102258.50
2023-02-19T21:05:21.707Z,102265.50
2023-02-19T21:07:48.263Z,102262.97
2023-02-19T21:10:14.786Z,102257.09
2023-02-19T21:12:42.093Z,102256.34
2023-02-19T21:15:09.040Z,102259.03
2023-02-19T21:17:35.552Z,102252.06
2023-02-19T21:20:02.078Z,102253.97
2023-02-19T21:22:28.515Z,102240.94
2023-02-19T21:24:55.001Z,102244.47
2023-02-19T21:27:21.488Z,102257.59
2023-02-19T21:29:47.911Z,102256.00
2023-02-19T21:32:14.829Z,102250.91
2023-02-19T21:34:42.444Z,102244.03
2023-02-19T21:37:08.873Z,102247.94
2023-02-19T21:39:35.330Z,102237.94
2023-02-19T21:42:02.560Z,102240.72
2023-02-19T21:44:29.012Z,102239.97
2023-02-19T21:46:55.825Z,102249.59
2023-02-19T21:49:22.381Z,102247.13
2023-02-19T21:51:49.630Z,102242.84
2023-02-19T21:54:19.156Z,102246.25
2023-02-19T21:56:45.629Z,102244.59
2023-02-19T21:59:12.687Z,102242.09
2023-02-19T22:01:39.868Z,102235.25
2023-02-19T22:04:07.952Z,102230.16
2023-02-19T22:06:35.060Z,102235.44
2023-02-19T22:09:01.749Z,102236.59
2023-02-19T22:11:28.764Z,102235.72
2023-02-19T22:13:55.237Z,102219.50
2023-02-19T22:16:21.837Z,102229.00
2023-02-19T22:18:50.225Z,102243.66
2023-02-19T22:21:17.018Z,102233.34
2023-02-19T22:23:48.266Z,102232.44
2023-02-19T22:26:19.158Z,102236.75
2023-02-19T22:28:47.653Z,102233.34
2023-02-19T22:31:16.111Z,102247.16
2023-02-19T22:33:42.971Z,102247.19
2023-02-19T22:36:17.715Z,102241.31
2023-02-19T22:38:44.323Z,102241.28
2023-02-19T22:41:11.494Z,102237.72
2023-02-19T22:43:37.908Z,102238.56
2023-02-19T22:46:08.554Z,102230.91
2023-02-19T22:48:34.990Z,102229.03
2023-02-19T22:51:02.375Z,102232.50
2023-02-19T22:53:28.843Z,102243.72
2023-02-19T22:55:55.229Z,102239.31
2023-02-19T22:58:21.648Z,102223.84
2023-02-19T23:00:48.101Z,102237.78
2023-02-19T23:03:14.642Z,102223.13
2023-02-19T23:05:41.065Z,102229.09
2023-02-19T23:08:07.477Z,102230.97
2023-02-19T23:10:34.342Z,102232.63
2023-02-19T23:13:00.923Z,102217.22
2023-02-19T23:15:27.357Z,102221.50
2023-02-19T23:17:53.813Z,102224.16
2023-02-19T23:20:20.254Z,102230.22
2023-02-19T23:22:46.718Z,102215.44
2023-02-19T23:25:13.359Z,102220.56
2023-02-19T23:27:39.814Z,102230.84
2023-02-19T23:30:07.342Z,102221.38
2023-02-19T23:32:33.780Z,102212.75
2023-02-19T23:35:00.275Z,102218.88
2023-02-19T23:37:26.733Z,102211.94
2023-02-19T23:39:53.420Z,102206.00
2023-02-19T23:42:19.905Z,102197.44
2023-02-19T23:44:47.066Z,102204.38
2023-02-19T23:47:14.214Z,102202.66
2023-02-19T23:49:40.980Z,102201.06
2023-02-19T23:52:09.198Z,102199.50
2023-02-19T23:54:35.612Z,102196.03
2023-02-19T23:57:02.060Z,102193.44
2023-02-19T23:59:28.544Z,102191.72
